sensor_id;sensor_type;location;lat;lon;timestamp;temperature;humidity
78611;SHT30;67932;50.474;4.436;2023-05-24T00:01:52;9.20;77.64
78611;SHT30;67932;50.474;4.436;2023-05-24T00:04:21;9.18;77.76
78611;SHT30;67932;50.474;4.436;2023-05-24T00:06:50;9.13;77.83
78611;SHT30;67932;50.474;4.436;2023-05-24T00:09:16;9.15;77.90
78611;SHT30;67932;50.474;4.436;2023-05-24T00:11:43;9.10;78.16
78611;SHT30;67932;50.474;4.436;2023-05-24T00:14:09;9.06;78.24
78611;SHT30;67932;50.474;4.436;2023-05-24T00:16:35;9.03;78.40
78611;SHT30;67932;50.474;4.436;2023-05-24T00:19:01;9.03;78.58
78611;SHT30;67932;50.474;4.436;2023-05-24T00:21:28;9.06;78.50
78611;SHT30;67932;50.474;4.436;2023-05-24T00:23:55;8.99;78.61
78611;SHT30;67932;50.474;4.436;2023-05-24T00:26:21;8.95;78.69
78611;SHT30;67932;50.474;4.436;2023-05-24T00:28:48;8.90;79.04
78611;SHT30;67932;50.474;4.436;2023-05-24T00:31:14;8.90;78.99
78611;SHT30;67932;50.474;4.436;2023-05-24T00:33:40;8.88;79.24
78611;SHT30;67932;50.474;4.436;2023-05-24T00:36:07;8.85;79.13
78611;SHT30;67932;50.474;4.436;2023-05-24T00:38:33;8.85;79.29
78611;SHT30;67932;50.474;4.436;2023-05-24T00:40:59;8.83;79.40
78611;SHT30;67932;50.474;4.436;2023-05-24T00:43:26;8.82;79.48
78611;SHT30;67932;50.474;4.436;2023-05-24T00:46:13;8.78;79.63
78611;SHT30;67932;50.474;4.436;2023-05-24T00:48:41;8.76;79.54
78611;SHT30;67932;50.474;4.436;2023-05-24T00:51:08;8.78;79.64
78611;SHT30;67932;50.474;4.436;2023-05-24T00:53:36;8.71;79.69
78611;SHT30;67932;50.474;4.436;2023-05-24T00:56:03;8.72;79.87
78611;SHT30;67932;50.474;4.436;2023-05-24T00:58:33;8.71;79.96
78611;SHT30;67932;50.474;4.436;2023-05-24T01:01:01;8.65;79.86
78611;SHT30;67932;50.474;4.436;2023-05-24T01:03:28;8.65;80.07
78611;SHT30;67932;50.474;4.436;2023-05-24T01:05:56;8.68;79.99
78611;SHT30;67932;50.474;4.436;2023-05-24T01:14:28;8.76;79.90
78611;SHT30;67932;50.474;4.436;2023-05-24T01:19:39;8.66;79.90
78611;SHT30;67932;50.474;4.436;2023-05-24T01:27:43;8.48;80.65
78611;SHT30;67932;50.474;4.436;2023-05-24T01:30:09;8.38;80.83
78611;SHT30;67932;50.474;4.436;2023-05-24T01:32:36;8.37;81.00
78611;SHT30;67932;50.474;4.436;2023-05-24T01:35:03;8.34;81.00
78611;SHT30;67932;50.474;4.436;2023-05-24T01:37:30;8.31;80.99
78611;SHT30;67932;50.474;4.436;2023-05-24T01:39:57;8.31;81.32
78611;SHT30;67932;50.474;4.436;2023-05-24T01:48:00;8.32;81.32
78611;SHT30;67932;50.474;4.436;2023-05-24T01:50:32;8.25;81.25
78611;SHT30;67932;50.474;4.436;2023-05-24T01:53:04;8.25;81.34
78611;SHT30;67932;50.474;4.436;2023-05-24T01:55:33;8.20;81.48
78611;SHT30;67932;50.474;4.436;2023-05-24T01:58:02;8.17;81.56
78611;SHT30;67932;50.474;4.436;2023-05-24T02:00:30;8.14;81.68
78611;SHT30;67932;50.474;4.436;2023-05-24T02:02:57;8.18;81.66
78611;SHT30;67932;50.474;4.436;2023-05-24T02:05:24;8.21;81.67
78611;SHT30;67932;50.474;4.436;2023-05-24T02:07:50;8.17;81.46
78611;SHT30;67932;50.474;4.436;2023-05-24T02:10:17;8.11;81.67
78611;SHT30;67932;50.474;4.436;2023-05-24T02:12:43;8.05;81.92
78611;SHT30;67932;50.474;4.436;2023-05-24T02:15:09;8.05;81.85
78611;SHT30;67932;50.474;4.436;2023-05-24T02:17:36;8.04;81.96
78611;SHT30;67932;50.474;4.436;2023-05-24T02:20:02;8.04;82.06
78611;SHT30;67932;50.474;4.436;2023-05-24T02:22:29;8.07;81.91
78611;SHT30;67932;50.474;4.436;2023-05-24T02:24:55;8.03;81.92
78611;SHT30;67932;50.474;4.436;2023-05-24T02:27:21;8.04;81.94
78611;SHT30;67932;50.474;4.436;2023-05-24T02:29:47;8.05;82.04
78611;SHT30;67932;50.474;4.436;2023-05-24T02:32:14;8.01;82.12
78611;SHT30;67932;50.474;4.436;2023-05-24T02:34:40;8.05;81.95
78611;SHT30;67932;50.474;4.436;2023-05-24T02:37:07;8.08;81.94
78611;SHT30;67932;50.474;4.436;2023-05-24T02:39:33;8.03;81.88
78611;SHT30;67932;50.474;4.436;2023-05-24T02:42:00;8.05;82.33
78611;SHT30;67932;50.474;4.436;2023-05-24T02:44:27;8.04;81.99
78611;SHT30;67932;50.474;4.436;2023-05-24T02:46:53;8.05;82.27
78611;SHT30;67932;50.474;4.436;2023-05-24T02:49:19;8.04;81.78
78611;SHT30;67932;50.474;4.436;2023-05-24T02:51:45;8.07;81.80
78611;SHT30;67932;50.474;4.436;2023-05-24T02:54:11;8.00;81.89
78611;SHT30;67932;50.474;4.436;2023-05-24T02:56:38;7.93;82.13
78611;SHT30;67932;50.474;4.436;2023-05-24T02:59:04;7.90;82.44
78611;SHT30;67932;50.474;4.436;2023-05-24T03:01:31;7.90;82.39
78611;SHT30;67932;50.474;4.436;2023-05-24T03:03:58;7.84;82.47
78611;SHT30;67932;50.474;4.436;2023-05-24T03:06:25;7.80;82.86
78611;SHT30;67932;50.474;4.436;2023-05-24T03:08:51;7.77;82.71
78611;SHT30;67932;50.474;4.436;2023-05-24T03:11:17;7.77;82.85
78611;SHT30;67932;50.474;4.436;2023-05-24T03:13:47;7.79;82.86
78611;SHT30;67932;50.474;4.436;2023-05-24T03:16:14;7.83;82.83
78611;SHT30;67932;50.474;4.436;2023-05-24T03:18:41;7.74;82.89
78611;SHT30;67932;50.474;4.436;2023-05-24T03:21:08;7.74;82.86
78611;SHT30;67932;50.474;4.436;2023-05-24T03:23:34;7.70;82.90
78611;SHT30;67932;50.474;4.436;2023-05-24T03:26:01;7.70;82.94
78611;SHT30;67932;50.474;4.436;2023-05-24T03:28:27;7.71;83.12
78611;SHT30;67932;50.474;4.436;2023-05-24T03:30:55;7.70;83.23
78611;SHT30;67932;50.474;4.436;2023-05-24T03:33:21;7.69;83.14
78611;SHT30;67932;50.474;4.436;2023-05-24T03:35:47;7.65;83.48
78611;SHT30;67932;50.474;4.436;2023-05-24T03:38:13;7.62;83.59
78611;SHT30;67932;50.474;4.436;2023-05-24T03:40:40;7.65;83.50
78611;SHT30;67932;50.474;4.436;2023-05-24T03:43:06;7.65;83.39
78611;SHT30;67932;50.474;4.436;2023-05-24T03:45:32;7.66;83.32
78611;SHT30;67932;50.474;4.436;2023-05-24T03:47:58;7.66;83.43
78611;SHT30;67932;50.474;4.436;2023-05-24T03:50:25;7.65;83.40
78611;SHT30;67932;50.474;4.436;2023-05-24T03:52:51;7.62;83.56
78611;SHT30;67932;50.474;4.436;2023-05-24T03:55:18;7.62;83.67
78611;SHT30;67932;50.474;4.436;2023-05-24T03:57:44;7.60;83.79
78611;SHT30;67932;50.474;4.436;2023-05-24T04:00:11;7.57;83.76
78611;SHT30;67932;50.474;4.436;2023-05-24T04:02:37;7.59;83.91
78611;SHT30;67932;50.474;4.436;2023-05-24T04:05:05;7.53;84.71
78611;SHT30;67932;50.474;4.436;2023-05-24T04:07:36;7.55;84.62
78611;SHT30;67932;50.474;4.436;2023-05-24T04:10:04;7.60;84.48
78611;SHT30;67932;50.474;4.436;2023-05-24T04:12:31;7.63;84.38
78611;SHT30;67932;50.474;4.436;2023-05-24T04:14:59;7.67;84.05
78611;SHT30;67932;50.474;4.436;2023-05-24T04:17:27;7.76;84.01
78611;SHT30;67932;50.474;4.436;2023-05-24T04:19:55;7.76;83.69
78611;SHT30;67932;50.474;4.436;2023-05-24T04:22:22;7.77;83.47
78611;SHT30;67932;50.474;4.436;2023-05-24T04:24:48;7.81;83.31
78611;SHT30;67932;50.474;4.436;2023-05-24T04:27:15;7.86;83.11
78611;SHT30;67932;50.474;4.436;2023-05-24T04:29:44;7.90;83.02
78611;SHT30;67932;50.474;4.436;2023-05-24T04:32:15;7.90;82.92
78611;SHT30;67932;50.474;4.436;2023-05-24T04:34:43;7.80;83.12
78611;SHT30;67932;50.474;4.436;2023-05-24T04:37:11;7.74;83.27
78611;SHT30;67932;50.474;4.436;2023-05-24T04:39:38;7.76;83.36
78611;SHT30;67932;50.474;4.436;2023-05-24T04:42:06;7.76;83.40
78611;SHT30;67932;50.474;4.436;2023-05-24T04:44:32;7.69;83.49
78611;SHT30;67932;50.474;4.436;2023-05-24T04:46:59;7.71;83.61
78611;SHT30;67932;50.474;4.436;2023-05-24T04:49:27;7.77;83.57
78611;SHT30;67932;50.474;4.436;2023-05-24T04:51:53;7.76;83.51
78611;SHT30;67932;50.474;4.436;2023-05-24T04:54:20;7.79;83.64
78611;SHT30;67932;50.474;4.436;2023-05-24T04:56:46;7.81;83.54
78611;SHT30;67932;50.474;4.436;2023-05-24T04:59:12;7.87;83.50
78611;SHT30;67932;50.474;4.436;2023-05-24T05:01:38;7.93;83.46
78611;SHT30;67932;50.474;4.436;2023-05-24T05:04:05;7.97;83.33
78611;SHT30;67932;50.474;4.436;2023-05-24T05:06:32;8.01;83.40
78611;SHT30;67932;50.474;4.436;2023-05-24T05:09:04;8.07;83.20
78611;SHT30;67932;50.474;4.436;2023-05-24T05:11:30;8.13;83.14
78611;SHT30;67932;50.474;4.436;2023-05-24T05:13:56;8.17;82.99
78611;SHT30;67932;50.474;4.436;2023-05-24T05:16:24;8.15;82.92
78611;SHT30;67932;50.474;4.436;2023-05-24T05:18:50;8.17;83.05
78611;SHT30;67932;50.474;4.436;2023-05-24T05:21:16;8.21;83.18
78611;SHT30;67932;50.474;4.436;2023-05-24T05:23:45;8.25;82.96
78611;SHT30;67932;50.474;4.436;2023-05-24T05:26:11;8.30;83.02
78611;SHT30;67932;50.474;4.436;2023-05-24T05:28:37;8.31;82.94
78611;SHT30;67932;50.474;4.436;2023-05-24T05:31:19;8.34;83.00
78611;SHT30;67932;50.474;4.436;2023-05-24T05:33:50;8.40;83.10
78611;SHT30;67932;50.474;4.436;2023-05-24T05:36:23;8.42;83.01
78611;SHT30;67932;50.474;4.436;2023-05-24T05:39:15;8.52;82.88
78611;SHT30;67932;50.474;4.436;2023-05-24T05:41:49;8.58;82.90
78611;SHT30;67932;50.474;4.436;2023-05-24T05:44:42;8.61;83.00
78611;SHT30;67932;50.474;4.436;2023-05-24T05:47:33;8.68;82.63
78611;SHT30;67932;50.474;4.436;2023-05-24T05:50:06;8.89;82.34
78611;SHT30;67932;50.474;4.436;2023-05-24T05:52:37;8.83;82.19
78611;SHT30;67932;50.474;4.436;2023-05-24T05:55:17;8.92;82.31
78611;SHT30;67932;50.474;4.436;2023-05-24T05:58:04;8.93;82.30
78611;SHT30;67932;50.474;4.436;2023-05-24T06:00:42;9.09;82.04
78611;SHT30;67932;50.474;4.436;2023-05-24T06:03:15;9.19;82.17
78611;SHT30;67932;50.474;4.436;2023-05-24T06:05:53;9.30;81.60
78611;SHT30;67932;50.474;4.436;2023-05-24T06:08:28;9.33;81.65
78611;SHT30;67932;50.474;4.436;2023-05-24T06:11:01;9.41;81.83
78611;SHT30;67932;50.474;4.436;2023-05-24T06:13:28;9.54;80.61
78611;SHT30;67932;50.474;4.436;2023-05-24T06:15:56;9.58;80.39
78611;SHT30;67932;50.474;4.436;2023-05-24T06:18:23;9.70;79.67
78611;SHT30;67932;50.474;4.436;2023-05-24T06:20:51;9.75;78.64
78611;SHT30;67932;50.474;4.436;2023-05-24T06:23:17;9.71;78.31
78611;SHT30;67932;50.474;4.436;2023-05-24T06:25:44;9.77;78.14
78611;SHT30;67932;50.474;4.436;2023-05-24T06:28:10;9.75;77.49
78611;SHT30;67932;50.474;4.436;2023-05-24T06:30:36;9.81;76.89
78611;SHT30;67932;50.474;4.436;2023-05-24T06:33:04;9.98;77.22
78611;SHT30;67932;50.474;4.436;2023-05-24T06:35:30;10.11;76.31
78611;SHT30;67932;50.474;4.436;2023-05-24T06:37:57;10.21;75.91
78611;SHT30;67932;50.474;4.436;2023-05-24T06:40:23;10.31;76.39
78611;SHT30;67932;50.474;4.436;2023-05-24T06:42:49;10.41;73.83
78611;SHT30;67932;50.474;4.436;2023-05-24T06:45:16;10.42;72.40
78611;SHT30;67932;50.474;4.436;2023-05-24T06:47:42;10.46;72.51
78611;SHT30;67932;50.474;4.436;2023-05-24T06:50:08;10.53;72.72
78611;SHT30;67932;50.474;4.436;2023-05-24T06:52:35;10.55;73.40
78611;SHT30;67932;50.474;4.436;2023-05-24T06:55:01;10.55;72.01
78611;SHT30;67932;50.474;4.436;2023-05-24T06:57:27;10.55;71.34
78611;SHT30;67932;50.474;4.436;2023-05-24T06:59:54;10.65;71.10
78611;SHT30;67932;50.474;4.436;2023-05-24T07:02:20;10.73;71.65
78611;SHT30;67932;50.474;4.436;2023-05-24T07:04:51;10.79;70.09
78611;SHT30;67932;50.474;4.436;2023-05-24T07:07:18;10.92;69.70
78611;SHT30;67932;50.474;4.436;2023-05-24T07:09:45;11.02;69.88
78611;SHT30;67932;50.474;4.436;2023-05-24T07:12:12;10.96;69.55
78611;SHT30;67932;50.474;4.436;2023-05-24T07:14:40;10.97;69.29
78611;SHT30;67932;50.474;4.436;2023-05-24T07:17:06;11.00;69.02
78611;SHT30;67932;50.474;4.436;2023-05-24T07:19:32;10.99;69.66
78611;SHT30;67932;50.474;4.436;2023-05-24T07:22:01;10.88;69.76
78611;SHT30;67932;50.474;4.436;2023-05-24T07:24:27;10.83;71.13
78611;SHT30;67932;50.474;4.436;2023-05-24T07:26:54;11.03;70.26
78611;SHT30;67932;50.474;4.436;2023-05-24T07:29:24;10.99;70.29
78611;SHT30;67932;50.474;4.436;2023-05-24T07:31:51;11.04;71.09
78611;SHT30;67932;50.474;4.436;2023-05-24T07:34:19;11.12;70.76
78611;SHT30;67932;50.474;4.436;2023-05-24T07:36:47;11.14;70.15
78611;SHT30;67932;50.474;4.436;2023-05-24T07:39:14;11.20;69.86
78611;SHT30;67932;50.474;4.436;2023-05-24T07:41:41;11.30;69.31
78611;SHT30;67932;50.474;4.436;2023-05-24T07:44:07;11.30;70.70
78611;SHT30;67932;50.474;4.436;2023-05-24T07:46:34;11.33;69.18
78611;SHT30;67932;50.474;4.436;2023-05-24T07:49:00;11.37;69.16
78611;SHT30;67932;50.474;4.436;2023-05-24T07:51:26;11.43;68.04
78611;SHT30;67932;50.474;4.436;2023-05-24T07:53:53;11.48;68.31
78611;SHT30;67932;50.474;4.436;2023-05-24T07:56:19;11.61;68.09
78611;SHT30;67932;50.474;4.436;2023-05-24T07:58:46;11.68;66.44
78611;SHT30;67932;50.474;4.436;2023-05-24T08:01:14;11.63;67.28
78611;SHT30;67932;50.474;4.436;2023-05-24T08:03:52;11.71;67.17
78611;SHT30;67932;50.474;4.436;2023-05-24T08:06:19;11.78;67.13
78611;SHT30;67932;50.474;4.436;2023-05-24T08:08:45;11.78;67.07
78611;SHT30;67932;50.474;4.436;2023-05-24T08:11:12;11.74;66.74
78611;SHT30;67932;50.474;4.436;2023-05-24T08:13:38;11.88;66.33
78611;SHT30;67932;50.474;4.436;2023-05-24T08:16:05;12.05;65.96
78611;SHT30;67932;50.474;4.436;2023-05-24T08:18:31;12.28;64.96
78611;SHT30;67932;50.474;4.436;2023-05-24T08:20:58;12.55;64.46
78611;SHT30;67932;50.474;4.436;2023-05-24T08:23:24;12.59;65.39
78611;SHT30;67932;50.474;4.436;2023-05-24T08:25:51;12.46;64.36
78611;SHT30;67932;50.474;4.436;2023-05-24T08:28:18;12.46;63.72
78611;SHT30;67932;50.474;4.436;2023-05-24T08:30:44;12.41;64.35
78611;SHT30;67932;50.474;4.436;2023-05-24T08:33:10;12.43;64.08
78611;SHT30;67932;50.474;4.436;2023-05-24T08:35:38;12.46;63.35
78611;SHT30;67932;50.474;4.436;2023-05-24T08:38:04;12.43;64.06
78611;SHT30;67932;50.474;4.436;2023-05-24T08:40:31;12.41;64.22
78611;SHT30;67932;50.474;4.436;2023-05-24T08:43:00;12.35;63.99
78611;SHT30;67932;50.474;4.436;2023-05-24T08:45:29;12.48;62.45
78611;SHT30;67932;50.474;4.436;2023-05-24T08:47:57;12.56;63.20
78611;SHT30;67932;50.474;4.436;2023-05-24T08:50:24;12.60;64.19
78611;SHT30;67932;50.474;4.436;2023-05-24T08:52:51;12.76;63.96
78611;SHT30;67932;50.474;4.436;2023-05-24T08:55:19;12.77;63.22
78611;SHT30;67932;50.474;4.436;2023-05-24T08:57:46;12.75;62.61
78611;SHT30;67932;50.474;4.436;2023-05-24T09:00:13;12.70;62.50
78611;SHT30;67932;50.474;4.436;2023-05-24T09:02:42;12.67;60.64
78611;SHT30;67932;50.474;4.436;2023-05-24T09:05:13;12.79;59.60
78611;SHT30;67932;50.474;4.436;2023-05-24T09:07:43;12.86;59.99
78611;SHT30;67932;50.474;4.436;2023-05-24T09:10:10;12.96;59.71
78611;SHT30;67932;50.474;4.436;2023-05-24T09:12:37;12.93;61.33
78611;SHT30;67932;50.474;4.436;2023-05-24T09:15:06;12.90;60.99
78611;SHT30;67932;50.474;4.436;2023-05-24T09:17:37;12.82;60.34
78611;SHT30;67932;50.474;4.436;2023-05-24T09:20:06;12.63;59.18
78611;SHT30;67932;50.474;4.436;2023-05-24T09:22:35;12.72;59.79
78611;SHT30;67932;50.474;4.436;2023-05-24T09:25:05;12.86;57.71
78611;SHT30;67932;50.474;4.436;2023-05-24T09:27:33;13.00;55.31
78611;SHT30;67932;50.474;4.436;2023-05-24T09:30:00;13.14;53.64
78611;SHT30;67932;50.474;4.436;2023-05-24T09:32:30;13.18;53.09
78611;SHT30;67932;50.474;4.436;2023-05-24T09:34:58;13.24;51.44
78611;SHT30;67932;50.474;4.436;2023-05-24T09:37:25;13.44;50.94
78611;SHT30;67932;50.474;4.436;2023-05-24T09:39:53;13.58;52.15
78611;SHT30;67932;50.474;4.436;2023-05-24T09:42:22;13.71;53.54
78611;SHT30;67932;50.474;4.436;2023-05-24T09:45:06;13.88;53.69
78611;SHT30;67932;50.474;4.436;2023-05-24T09:47:41;14.05;51.64
78611;SHT30;67932;50.474;4.436;2023-05-24T09:50:15;14.26;49.77
78611;SHT30;67932;50.474;4.436;2023-05-24T09:52:44;14.49;49.64
78611;SHT30;67932;50.474;4.436;2023-05-24T09:55:15;14.72;49.48
78611;SHT30;67932;50.474;4.436;2023-05-24T09:58:01;14.89;48.26
78611;SHT30;67932;50.474;4.436;2023-05-24T10:00:38;14.99;48.14
78611;SHT30;67932;50.474;4.436;2023-05-24T10:03:07;14.93;46.99
78611;SHT30;67932;50.474;4.436;2023-05-24T10:05:36;14.99;48.77
78611;SHT30;67932;50.474;4.436;2023-05-24T10:08:03;15.23;50.13
78611;SHT30;67932;50.474;4.436;2023-05-24T10:10:34;15.57;47.71
78611;SHT30;67932;50.474;4.436;2023-05-24T10:13:01;15.61;46.73
78611;SHT30;67932;50.474;4.436;2023-05-24T10:15:28;15.79;45.64
78611;SHT30;67932;50.474;4.436;2023-05-24T10:17:55;15.77;46.12
78611;SHT30;67932;50.474;4.436;2023-05-24T10:20:22;15.57;46.77
78611;SHT30;67932;50.474;4.436;2023-05-24T10:22:54;15.38;47.77
78611;SHT30;67932;50.474;4.436;2023-05-24T10:25:26;15.41;48.01
78611;SHT30;67932;50.474;4.436;2023-05-24T10:28:00;15.03;49.34
78611;SHT30;67932;50.474;4.436;2023-05-24T10:30:41;15.20;49.25
78611;SHT30;67932;50.474;4.436;2023-05-24T10:33:12;15.50;48.40
78611;SHT30;67932;50.474;4.436;2023-05-24T10:35:39;15.48;48.33
78611;SHT30;67932;50.474;4.436;2023-05-24T10:38:07;15.69;49.26
78611;SHT30;67932;50.474;4.436;2023-05-24T10:40:40;15.94;47.32
78611;SHT30;67932;50.474;4.436;2023-05-24T10:43:27;16.16;46.94
78611;SHT30;67932;50.474;4.436;2023-05-24T10:49:04;15.66;45.48
78611;SHT30;67932;50.474;4.436;2023-05-24T10:51:35;15.68;45.75
78611;SHT30;67932;50.474;4.436;2023-05-24T10:54:13;15.74;45.09
78611;SHT30;67932;50.474;4.436;2023-05-24T10:56:42;15.82;45.05
78611;SHT30;67932;50.474;4.436;2023-05-24T10:59:10;15.81;45.55
78611;SHT30;67932;50.474;4.436;2023-05-24T11:01:54;15.89;45.88
78611;SHT30;67932;50.474;4.436;2023-05-24T11:04:21;16.05;44.74
78611;SHT30;67932;50.474;4.436;2023-05-24T11:06:49;15.95;44.61
78611;SHT30;67932;50.474;4.436;2023-05-24T11:09:21;15.81;45.16
78611;SHT30;67932;50.474;4.436;2023-05-24T11:11:49;15.88;45.69
78611;SHT30;67932;50.474;4.436;2023-05-24T11:14:23;15.94;45.75
78611;SHT30;67932;50.474;4.436;2023-05-24T11:16:52;16.30;44.96
78611;SHT30;67932;50.474;4.436;2023-05-24T11:21:48;17.93;43.15
78611;SHT30;67932;50.474;4.436;2023-05-24T11:24:19;18.22;41.58
78611;SHT30;67932;50.474;4.436;2023-05-24T11:26:46;17.20;43.18
78611;SHT30;67932;50.474;4.436;2023-05-24T11:29:13;16.77;45.74
78611;SHT30;67932;50.474;4.436;2023-05-24T11:31:55;16.85;45.69
78611;SHT30;67932;50.474;4.436;2023-05-24T11:34:32;16.67;46.20
78611;SHT30;67932;50.474;4.436;2023-05-24T11:36:59;16.73;46.58
78611;SHT30;67932;50.474;4.436;2023-05-24T11:39:30;16.87;46.00
78611;SHT30;67932;50.474;4.436;2023-05-24T11:41:58;16.71;46.09
78611;SHT30;67932;50.474;4.436;2023-05-24T11:44:25;17.00;46.21
78611;SHT30;67932;50.474;4.436;2023-05-24T11:47:00;17.75;46.22
78611;SHT30;67932;50.474;4.436;2023-05-24T11:49:27;18.34;43.02
78611;SHT30;67932;50.474;4.436;2023-05-24T11:51:55;18.87;42.38
78611;SHT30;67932;50.474;4.436;2023-05-24T11:54:25;18.91;42.15
78611;SHT30;67932;50.474;4.436;2023-05-24T11:56:52;18.39;43.78
78611;SHT30;67932;50.474;4.436;2023-05-24T11:59:26;17.82;44.42
78611;SHT30;67932;50.474;4.436;2023-05-24T12:02:00;17.81;45.67
78611;SHT30;67932;50.474;4.436;2023-05-24T12:04:28;17.90;46.20
78611;SHT30;67932;50.474;4.436;2023-05-24T12:06:54;17.92;45.48
78611;SHT30;67932;50.474;4.436;2023-05-24T12:09:21;18.22;45.10
78611;SHT30;67932;50.474;4.436;2023-05-24T12:11:49;18.32;45.51
78611;SHT30;67932;50.474;4.436;2023-05-24T12:14:18;18.20;46.07
78611;SHT30;67932;50.474;4.436;2023-05-24T12:16:45;18.09;46.68
78611;SHT30;67932;50.474;4.436;2023-05-24T12:19:19;17.79;46.52
78611;SHT30;67932;50.474;4.436;2023-05-24T12:21:47;17.42;47.59
78611;SHT30;67932;50.474;4.436;2023-05-24T12:24:16;16.87;48.27
78611;SHT30;67932;50.474;4.436;2023-05-24T12:26:45;16.87;49.18
78611;SHT30;67932;50.474;4.436;2023-05-24T12:29:12;16.80;49.96
78611;SHT30;67932;50.474;4.436;2023-05-24T12:31:40;16.67;50.67
78611;SHT30;67932;50.474;4.436;2023-05-24T12:34:17;16.67;49.90
78611;SHT30;67932;50.474;4.436;2023-05-24T12:36:44;16.79;50.71
78611;SHT30;67932;50.474;4.436;2023-05-24T12:41:55;16.64;51.03
78611;SHT30;67932;50.474;4.436;2023-05-24T12:44:33;16.71;51.52
78611;SHT30;67932;50.474;4.436;2023-05-24T12:47:02;16.56;51.01
78611;SHT30;67932;50.474;4.436;2023-05-24T12:49:29;16.37;52.12
78611;SHT30;67932;50.474;4.436;2023-05-24T12:51:56;16.30;52.47
78611;SHT30;67932;50.474;4.436;2023-05-24T12:54:27;16.19;52.79
78611;SHT30;67932;50.474;4.436;2023-05-24T12:56:54;16.22;53.02
78611;SHT30;67932;50.474;4.436;2023-05-24T12:59:21;16.26;53.22
78611;SHT30;67932;50.474;4.436;2023-05-24T13:01:47;16.22;53.88
78611;SHT30;67932;50.474;4.436;2023-05-24T13:04:18;16.22;53.72
78611;SHT30;67932;50.474;4.436;2023-05-24T13:06:46;16.34;53.80
78611;SHT30;67932;50.474;4.436;2023-05-24T13:09:13;17.04;51.01
78611;SHT30;67932;50.474;4.436;2023-05-24T13:11:40;17.23;51.26
78611;SHT30;67932;50.474;4.436;2023-05-24T13:14:07;17.21;51.49
78611;SHT30;67932;50.474;4.436;2023-05-24T13:16:33;17.07;51.91
78611;SHT30;67932;50.474;4.436;2023-05-24T13:19:01;17.04;51.46
78611;SHT30;67932;50.474;4.436;2023-05-24T13:21:27;17.06;51.45
78611;SHT30;67932;50.474;4.436;2023-05-24T13:23:54;17.06;51.35
78611;SHT30;67932;50.474;4.436;2023-05-24T13:26:20;16.95;51.74
78611;SHT30;67932;50.474;4.436;2023-05-24T13:28:47;16.71;51.88
78611;SHT30;67932;50.474;4.436;2023-05-24T13:31:13;16.84;51.92
78611;SHT30;67932;50.474;4.436;2023-05-24T13:33:39;17.07;52.42
78611;SHT30;67932;50.474;4.436;2023-05-24T13:36:05;17.13;52.53
78611;SHT30;67932;50.474;4.436;2023-05-24T13:38:33;17.65;50.17
78611;SHT30;67932;50.474;4.436;2023-05-24T13:40:59;18.95;47.07
78611;SHT30;67932;50.474;4.436;2023-05-24T13:43:25;19.11;46.21
78611;SHT30;67932;50.474;4.436;2023-05-24T13:45:51;20.37;42.77
78611;SHT30;67932;50.474;4.436;2023-05-24T13:48:18;19.68;44.40
78611;SHT30;67932;50.474;4.436;2023-05-24T13:50:44;19.29;45.76
78611;SHT30;67932;50.474;4.436;2023-05-24T13:53:10;19.83;44.77
78611;SHT30;67932;50.474;4.436;2023-05-24T13:55:37;19.66;44.99
78611;SHT30;67932;50.474;4.436;2023-05-24T13:58:03;19.22;46.36
78611;SHT30;67932;50.474;4.436;2023-05-24T14:00:30;18.61;47.26
78611;SHT30;67932;50.474;4.436;2023-05-24T14:02:58;18.10;49.53
78611;SHT30;67932;50.474;4.436;2023-05-24T14:05:24;17.82;50.24
78611;SHT30;67932;50.474;4.436;2023-05-24T14:07:50;17.78;50.42
78611;SHT30;67932;50.474;4.436;2023-05-24T14:10:17;17.76;49.80
78611;SHT30;67932;50.474;4.436;2023-05-24T14:12:43;18.44;47.48
78611;SHT30;67932;50.474;4.436;2023-05-24T14:15:10;17.96;47.90
78611;SHT30;67932;50.474;4.436;2023-05-24T14:17:36;17.55;49.55
78611;SHT30;67932;50.474;4.436;2023-05-24T14:20:02;17.38;51.08
78611;SHT30;67932;50.474;4.436;2023-05-24T14:22:29;17.18;51.66
78611;SHT30;67932;50.474;4.436;2023-05-24T14:24:56;17.24;51.53
78611;SHT30;67932;50.474;4.436;2023-05-24T14:27:23;17.13;52.18
78611;SHT30;67932;50.474;4.436;2023-05-24T14:29:50;16.99;51.73
78611;SHT30;67932;50.474;4.436;2023-05-24T14:32:16;16.90;52.38
78611;SHT30;67932;50.474;4.436;2023-05-24T14:34:43;16.79;52.59
78611;SHT30;67932;50.474;4.436;2023-05-24T14:37:09;16.77;52.57
78611;SHT30;67932;50.474;4.436;2023-05-24T14:39:35;16.63;52.98
78611;SHT30;67932;50.474;4.436;2023-05-24T14:42:01;16.45;53.57
78611;SHT30;67932;50.474;4.436;2023-05-24T14:44:28;16.36;53.80
78611;SHT30;67932;50.474;4.436;2023-05-24T14:46:54;16.39;53.82
78611;SHT30;67932;50.474;4.436;2023-05-24T14:49:20;16.33;53.87
78611;SHT30;67932;50.474;4.436;2023-05-24T14:51:47;16.20;54.57
78611;SHT30;67932;50.474;4.436;2023-05-24T14:54:14;16.25;54.37
78611;SHT30;67932;50.474;4.436;2023-05-24T14:56:41;16.26;54.60
78611;SHT30;67932;50.474;4.436;2023-05-24T14:59:07;16.29;54.33
78611;SHT30;67932;50.474;4.436;2023-05-24T15:01:33;16.27;53.60
78611;SHT30;67932;50.474;4.436;2023-05-24T15:04:00;16.16;54.08
78611;SHT30;67932;50.474;4.436;2023-05-24T15:06:26;16.06;54.15
78611;SHT30;67932;50.474;4.436;2023-05-24T15:08:54;15.98;54.95
78611;SHT30;67932;50.474;4.436;2023-05-24T15:11:21;16.05;54.67
78611;SHT30;67932;50.474;4.436;2023-05-24T15:13:47;16.02;54.73
78611;SHT30;67932;50.474;4.436;2023-05-24T15:16:14;15.94;54.78
78611;SHT30;67932;50.474;4.436;2023-05-24T15:18:40;15.99;54.94
78611;SHT30;67932;50.474;4.436;2023-05-24T15:21:07;16.05;55.14
78611;SHT30;67932;50.474;4.436;2023-05-24T15:23:33;16.20;54.86
78611;SHT30;67932;50.474;4.436;2023-05-24T15:25:59;16.25;55.39
78611;SHT30;67932;50.474;4.436;2023-05-24T15:28:26;16.42;54.51
78611;SHT30;67932;50.474;4.436;2023-05-24T15:30:53;16.45;54.19
78611;SHT30;67932;50.474;4.436;2023-05-24T15:33:19;16.37;54.23
78611;SHT30;67932;50.474;4.436;2023-05-24T15:35:45;16.52;54.24
78611;SHT30;67932;50.474;4.436;2023-05-24T15:38:12;16.81;54.21
78611;SHT30;67932;50.474;4.436;2023-05-24T15:40:42;17.11;52.80
78611;SHT30;67932;50.474;4.436;2023-05-24T15:43:09;17.20;52.64
78611;SHT30;67932;50.474;4.436;2023-05-24T15:45:35;16.91;53.04
78611;SHT30;67932;50.474;4.436;2023-05-24T15:48:02;16.83;53.83
78611;SHT30;67932;50.474;4.436;2023-05-24T15:50:31;16.80;54.56
78611;SHT30;67932;50.474;4.436;2023-05-24T15:52:58;16.70;54.13
78611;SHT30;67932;50.474;4.436;2023-05-24T15:55:24;16.79;54.54
78611;SHT30;67932;50.474;4.436;2023-05-24T15:57:50;16.69;55.05
78611;SHT30;67932;50.474;4.436;2023-05-24T16:00:17;16.81;54.37
78611;SHT30;67932;50.474;4.436;2023-05-24T16:02:43;17.23;53.29
78611;SHT30;67932;50.474;4.436;2023-05-24T16:05:10;17.81;52.07
78611;SHT30;67932;50.474;4.436;2023-05-24T16:07:36;19.11;48.27
78611;SHT30;67932;50.474;4.436;2023-05-24T16:10:02;20.10;45.39
78611;SHT30;67932;50.474;4.436;2023-05-24T16:12:29;20.27;44.86